sensor_id;sensor_type;location;lat;lon;timestamp;pressure;altitude;pressure_sealevel;temperature;humidity
30598;BME280;17365;48.878;8.334;2022-07-10T00:01:54;100780.81;;;20.88;63.10
30598;BME280;17365;48.878;8.334;2022-07-10T00:04:19;100779.75;;;20.94;62.73
30598;BME280;17365;48.878;8.334;2022-07-10T00:06:45;100789.19;;;20.73;63.58
30598;BME280;17365;48.878;8.334;2022-07-10T00:09:13;100773.06;;;20.82;63.32
30598;BME280;17365;48.878;8.334;2022-07-10T00:11:39;100779.78;;;20.92;62.83
30598;BME280;17365;48.878;8.334;2022-07-10T00:14:05;100788.13;;;20.79;63.50
30598;BME280;17365;48.878;8.334;2022-07-10T00:16:30;100782.09;;;20.75;63.49
30598;BME280;17365;48.878;8.334;2022-07-10T00:18:55;100785.81;;;20.68;63.91
30598;BME280;17365;48.878;8.334;2022-07-10T00:21:21;100782.34;;;20.66;64.07
30598;BME280;17365;48.878;8.334;2022-07-10T00:23:46;100786.31;;;20.50;64.96
30598;BME280;17365;48.878;8.334;2022-07-10T00:26:11;100778.03;;;20.63;64.62
30598;BME280;17365;48.878;8.334;2022-07-10T00:28:37;100778.72;;;20.70;64.15
30598;BME280;17365;48.878;8.334;2022-07-10T00:31:02;100768.91;;;20.75;64.00
30598;BME280;17365;48.878;8.334;2022-07-10T00:33:27;100767.09;;;20.77;63.92
30598;BME280;17365;48.878;8.334;2022-07-10T00:35:53;100775.16;;;20.71;64.34
30598;BME280;17365;48.878;8.334;2022-07-10T00:38:19;100773.38;;;20.72;64.35
30598;BME280;17365;48.878;8.334;2022-07-10T00:40:44;100772.63;;;20.68;64.44
30598;BME280;17365;48.878;8.334;2022-07-10T00:43:09;100778.53;;;20.76;64.19
30598;BME280;17365;48.878;8.334;2022-07-10T00:45:35;100777.69;;;20.45;65.48
30598;BME280;17365;48.878;8.334;2022-07-10T00:48:00;100768.78;;;20.49;65.18
30598;BME280;17365;48.878;8.334;2022-07-10T00:50:26;100766.44;;;20.69;64.47
30598;BME280;17365;48.878;8.334;2022-07-10T00:52:51;100764.94;;;20.60;64.93
30598;BME280;17365;48.878;8.334;2022-07-10T00:55:17;100763.69;;;20.72;64.71
30598;BME280;17365;48.878;8.334;2022-07-10T00:57:42;100769.06;;;20.69;65.07
30598;BME280;17365;48.878;8.334;2022-07-10T01:00:08;100760.25;;;20.70;65.27
30598;BME280;17365;48.878;8.334;2022-07-10T01:02:39;100764.03;;;20.61;65.51
30598;BME280;17365;48.878;8.334;2022-07-10T01:05:06;100762.63;;;20.48;66.35
30598;BME280;17365;48.878;8.334;2022-07-10T01:07:31;100763.44;;;20.52;65.62
30598;BME280;17365;48.878;8.334;2022-07-10T01:09:57;100752.69;;;20.58;65.66
30598;BME280;17365;48.878;8.334;2022-07-10T01:12:24;100762.47;;;20.54;65.56
30598;BME280;17365;48.878;8.334;2022-07-10T01:14:50;100764.06;;;20.60;65.08
30598;BME280;17365;48.878;8.334;2022-07-10T01:17:16;100767.59;;;20.59;65.20
30598;BME280;17365;48.878;8.334;2022-07-10T01:19:42;100764.88;;;20.31;66.32
30598;BME280;17365;48.878;8.334;2022-07-10T01:22:07;100769.63;;;20.49;65.37
30598;BME280;17365;48.878;8.334;2022-07-10T01:24:32;100762.84;;;20.42;65.96
30598;BME280;17365;48.878;8.334;2022-07-10T01:26:57;100772.00;;;20.27;66.46
30598;BME280;17365;48.878;8.334;2022-07-10T01:29:23;100772.59;;;19.70;69.26
30598;BME280;17365;48.878;8.334;2022-07-10T01:31:49;100780.06;;;19.16;72.09
30598;BME280;17365;48.878;8.334;2022-07-10T01:34:14;100775.22;;;19.35;72.21
30598;BME280;17365;48.878;8.334;2022-07-10T01:36:39;100779.78;;;18.88;75.17
30598;BME280;17365;48.878;8.334;2022-07-10T01:39:06;100784.41;;;19.54;71.41
30598;BME280;17365;48.878;8.334;2022-07-10T01:41:32;100785.56;;;19.42;71.58
30598;BME280;17365;48.878;8.334;2022-07-10T01:43:57;100791.16;;;19.29;72.10
30598;BME280;17365;48.878;8.334;2022-07-10T01:46:23;100787.19;;;19.48;71.23
30598;BME280;17365;48.878;8.334;2022-07-10T01:48:49;100792.66;;;19.39;70.34
30598;BME280;17365;48.878;8.334;2022-07-10T01:51:14;100794.47;;;19.37;69.20
30598;BME280;17365;48.878;8.334;2022-07-10T01:53:40;100793.38;;;19.08;68.21
30598;BME280;17365;48.878;8.334;2022-07-10T01:56:08;100803.31;;;19.33;66.21
30598;BME280;17365;48.878;8.334;2022-07-10T01:58:34;100800.69;;;18.94;66.77
30598;BME280;17365;48.878;8.334;2022-07-10T02:01:00;100805.81;;;19.00;66.28
30598;BME280;17365;48.878;8.334;2022-07-10T02:03:25;100806.94;;;18.88;66.74
30598;BME280;17365;48.878;8.334;2022-07-10T02:06:09;100798.66;;;19.07;66.41
30598;BME280;17365;48.878;8.334;2022-07-10T02:08:34;100808.84;;;18.37;67.83
30598;BME280;17365;48.878;8.334;2022-07-10T02:11:00;100807.41;;;18.66;67.21
30598;BME280;17365;48.878;8.334;2022-07-10T02:13:25;100807.13;;;18.81;66.87
30598;BME280;17365;48.878;8.334;2022-07-10T02:15:53;100811.25;;;18.93;66.29
30598;BME280;17365;48.878;8.334;2022-07-10T02:18:19;100816.72;;;18.82;66.85
30598;BME280;17365;48.878;8.334;2022-07-10T02:20:44;100819.78;;;18.14;68.58
30598;BME280;17365;48.878;8.334;2022-07-10T02:23:09;100819.88;;;18.54;67.59
30598;BME280;17365;48.878;8.334;2022-07-10T02:25:35;100822.09;;;18.76;66.57
30598;BME280;17365;48.878;8.334;2022-07-10T02:28:00;100821.69;;;18.51;67.49
30598;BME280;17365;48.878;8.334;2022-07-10T02:30:25;100824.44;;;17.97;69.13
30598;BME280;17365;48.878;8.334;2022-07-10T02:32:51;100822.59;;;18.50;67.48
30598;BME280;17365;48.878;8.334;2022-07-10T02:35:17;100822.25;;;18.70;66.72
30598;BME280;17365;48.878;8.334;2022-07-10T02:37:42;100820.66;;;18.59;66.96
30598;BME280;17365;48.878;8.334;2022-07-10T02:40:07;100824.19;;;18.58;66.71
30598;BME280;17365;48.878;8.334;2022-07-10T02:42:33;100821.41;;;18.20;67.80
30598;BME280;17365;48.878;8.334;2022-07-10T02:44:58;100822.47;;;18.08;68.38
30598;BME280;17365;48.878;8.334;2022-07-10T02:47:23;100823.13;;;18.21;67.53
30598;BME280;17365;48.878;8.334;2022-07-10T02:49:48;100818.47;;;17.87;69.15
30598;BME280;17365;48.878;8.334;2022-07-10T02:52:14;100818.66;;;17.75;69.62
30598;BME280;17365;48.878;8.334;2022-07-10T02:54:39;100828.69;;;18.04;68.56
30598;BME280;17365;48.878;8.334;2022-07-10T02:57:04;100824.56;;;17.89;69.19
30598;BME280;17365;48.878;8.334;2022-07-10T02:59:30;100822.03;;;17.83;69.63
30598;BME280;17365;48.878;8.334;2022-07-10T03:01:55;100825.91;;;17.59;70.60
30598;BME280;17365;48.878;8.334;2022-07-10T03:04:21;100829.81;;;17.89;68.99
30598;BME280;17365;48.878;8.334;2022-07-10T03:06:46;100831.69;;;17.83;69.55
30598;BME280;17365;48.878;8.334;2022-07-10T03:09:11;100830.91;;;17.76;69.82
30598;BME280;17365;48.878;8.334;2022-07-10T03:11:36;100831.06;;;17.64;70.75
30598;BME280;17365;48.878;8.334;2022-07-10T03:14:02;100836.25;;;17.70;70.43
30598;BME280;17365;48.878;8.334;2022-07-10T03:16:27;100824.91;;;17.68;70.03
30598;BME280;17365;48.878;8.334;2022-07-10T03:18:53;100833.53;;;17.76;70.14
30598;BME280;17365;48.878;8.334;2022-07-10T03:21:18;100824.72;;;17.80;69.73
30598;BME280;17365;48.878;8.334;2022-07-10T03:23:43;100829.47;;;17.54;71.07
30598;BME280;17365;48.878;8.334;2022-07-10T03:26:08;100827.59;;;17.62;70.30
30598;BME280;17365;48.878;8.334;2022-07-10T03:28:34;100830.06;;;17.74;70.30
30598;BME280;17365;48.878;8.334;2022-07-10T03:30:59;100830.50;;;17.99;69.62
30598;BME280;17365;48.878;8.334;2022-07-10T03:33:24;100836.13;;;17.79;70.34
30598;BME280;17365;48.878;8.334;2022-07-10T03:35:49;100838.63;;;17.85;70.30
30598;BME280;17365;48.878;8.334;2022-07-10T03:38:15;100838.81;;;17.73;70.70
30598;BME280;17365;48.878;8.334;2022-07-10T03:40:40;100837.78;;;17.83;70.50
30598;BME280;17365;48.878;8.334;2022-07-10T03:43:05;100833.25;;;17.93;70.02
30598;BME280;17365;48.878;8.334;2022-07-10T03:45:30;100842.19;;;17.83;70.06
30598;BME280;17365;48.878;8.334;2022-07-10T03:47:56;100839.47;;;17.87;70.29
30598;BME280;17365;48.878;8.334;2022-07-10T03:50:21;100837.75;;;17.85;70.46
30598;BME280;17365;48.878;8.334;2022-07-10T03:52:46;100841.84;;;17.44;72.09
30598;BME280;17365;48.878;8.334;2022-07-10T03:55:11;100832.72;;;17.72;70.93
30598;BME280;17365;48.878;8.334;2022-07-10T03:57:37;100836.78;;;17.92;70.11
30598;BME280;17365;48.878;8.334;2022-07-10T04:00:25;100843.56;;;18.05;69.65
30598;BME280;17365;48.878;8.334;2022-07-10T04:03:02;100843.41;;;17.59;70.98
30598;BME280;17365;48.878;8.334;2022-07-10T04:05:28;100847.28;;;17.92;69.87
30598;BME280;17365;48.878;8.334;2022-07-10T04:07:55;100843.78;;;17.91;70.10
30598;BME280;17365;48.878;8.334;2022-07-10T04:10:25;100848.25;;;17.26;72.43
30598;BME280;17365;48.878;8.334;2022-07-10T04:12:51;100848.78;;;16.85;73.78
30598;BME280;17365;48.878;8.334;2022-07-10T04:15:17;100851.47;;;17.43;71.49
30598;BME280;17365;48.878;8.334;2022-07-10T04:17:42;100846.50;;;17.85;69.98
30598;BME280;17365;48.878;8.334;2022-07-10T04:20:09;100852.53;;;17.92;69.29
30598;BME280;17365;48.878;8.334;2022-07-10T04:22:34;100852.03;;;17.67;70.64
30598;BME280;17365;48.878;8.334;2022-07-10T04:24:59;100849.16;;;17.24;72.10
30598;BME280;17365;48.878;8.334;2022-07-10T04:27:25;100851.03;;;17.75;69.97
30598;BME280;17365;48.878;8.334;2022-07-10T04:29:50;100844.75;;;17.86;69.21
30598;BME280;17365;48.878;8.334;2022-07-10T04:32:16;100842.72;;;18.03;68.86
30598;BME280;17365;48.878;8.334;2022-07-10T04:34:42;100838.19;;;18.11;68.51
30598;BME280;17365;48.878;8.334;2022-07-10T04:37:07;100844.16;;;17.65;69.76
30598;BME280;17365;48.878;8.334;2022-07-10T04:39:33;100836.38;;;18.15;68.04
30598;BME280;17365;48.878;8.334;2022-07-10T04:42:00;100844.78;;;18.33;67.40
30598;BME280;17365;48.878;8.334;2022-07-10T04:44:25;100847.84;;;18.09;67.40
30598;BME280;17365;48.878;8.334;2022-07-10T04:46:50;100843.78;;;18.41;67.39
30598;BME280;17365;48.878;8.334;2022-07-10T04:49:16;100839.72;;;19.12;64.56
30598;BME280;17365;48.878;8.334;2022-07-10T04:51:41;100844.53;;;18.94;65.23
30598;BME280;17365;48.878;8.334;2022-07-10T04:54:06;100842.72;;;18.96;65.45
30598;BME280;17365;48.878;8.334;2022-07-10T04:56:31;100849.44;;;18.67;66.18
30598;BME280;17365;48.878;8.334;2022-07-10T04:58:57;100854.84;;;18.10;68.27
30598;BME280;17365;48.878;8.334;2022-07-10T05:01:22;100860.78;;;17.69;69.43
30598;BME280;17365;48.878;8.334;2022-07-10T05:03:47;100858.50;;;18.01;68.49
30598;BME280;17365;48.878;8.334;2022-07-10T05:06:13;100859.84;;;18.25;67.69
30598;BME280;17365;48.878;8.334;2022-07-10T05:08:38;100861.28;;;18.42;67.20
30598;BME280;17365;48.878;8.334;2022-07-10T05:11:03;100867.41;;;18.42;67.16
30598;BME280;17365;48.878;8.334;2022-07-10T05:13:29;100860.63;;;18.29;67.73
30598;BME280;17365;48.878;8.334;2022-07-10T05:15:54;100862.91;;;17.39;70.91
30598;BME280;17365;48.878;8.334;2022-07-10T05:18:19;100862.72;;;18.10;68.66
30598;BME280;17365;48.878;8.334;2022-07-10T05:20:45;100867.19;;;18.53;66.56
30598;BME280;17365;48.878;8.334;2022-07-10T05:23:13;100866.03;;;18.71;65.75
30598;BME280;17365;48.878;8.334;2022-07-10T05:25:38;100870.28;;;18.28;67.22
30598;BME280;17365;48.878;8.334;2022-07-10T05:28:04;100868.16;;;18.49;66.28
30598;BME280;17365;48.878;8.334;2022-07-10T05:30:30;100878.81;;;18.41;66.71
30598;BME280;17365;48.878;8.334;2022-07-10T05:32:56;100878.13;;;17.79;68.79
30598;BME280;17365;48.878;8.334;2022-07-10T05:35:21;100870.41;;;18.21;67.23
30598;BME280;17365;48.878;8.334;2022-07-10T05:37:46;100876.22;;;18.40;66.40
30598;BME280;17365;48.878;8.334;2022-07-10T05:40:12;100875.41;;;18.36;65.80
30598;BME280;17365;48.878;8.334;2022-07-10T05:42:37;100877.31;;;18.76;64.72
30598;BME280;17365;48.878;8.334;2022-07-10T05:45:03;100870.00;;;18.90;64.04
30598;BME280;17365;48.878;8.334;2022-07-10T05:47:29;100880.31;;;18.05;66.79
30598;BME280;17365;48.878;8.334;2022-07-10T05:49:55;100875.88;;;18.58;64.92
30598;BME280;17365;48.878;8.334;2022-07-10T05:52:20;100872.53;;;17.99;66.02
30598;BME280;17365;48.878;8.334;2022-07-10T05:54:45;100875.00;;;18.56;64.53
30598;BME280;17365;48.878;8.334;2022-07-10T05:57:11;100871.72;;;17.95;66.40
30598;BME280;17365;48.878;8.334;2022-07-10T05:59:36;100888.00;;;17.59;66.15
30598;BME280;17365;48.878;8.334;2022-07-10T06:02:02;100885.47;;;18.10;63.96
30598;BME280;17365;48.878;8.334;2022-07-10T06:04:27;100886.50;;;17.41;66.54
30598;BME280;17365;48.878;8.334;2022-07-10T06:06:52;100890.94;;;17.97;64.79
30598;BME280;17365;48.878;8.334;2022-07-10T06:09:18;100885.25;;;18.23;64.38
30598;BME280;17365;48.878;8.334;2022-07-10T06:11:43;100896.31;;;17.90;64.15
30598;BME280;17365;48.878;8.334;2022-07-10T06:14:10;100894.25;;;18.59;62.71
30598;BME280;17365;48.878;8.334;2022-07-10T06:16:36;100915.16;;;17.55;65.20
30598;BME280;17365;48.878;8.334;2022-07-10T06:19:01;100903.63;;;18.25;63.29
30598;BME280;17365;48.878;8.334;2022-07-10T06:21:26;100912.19;;;17.82;64.41
30598;BME280;17365;48.878;8.334;2022-07-10T06:23:52;100914.75;;;17.85;64.49
30598;BME280;17365;48.878;8.334;2022-07-10T06:26:17;100912.53;;;17.55;65.23
30598;BME280;17365;48.878;8.334;2022-07-10T06:28:42;100923.22;;;18.04;63.69
30598;BME280;17365;48.878;8.334;2022-07-10T06:31:08;100920.94;;;17.81;63.91
30598;BME280;17365;48.878;8.334;2022-07-10T06:33:33;100921.13;;;17.69;64.08
30598;BME280;17365;48.878;8.334;2022-07-10T06:36:00;100921.13;;;17.66;64.76
30598;BME280;17365;48.878;8.334;2022-07-10T06:38:26;100922.88;;;17.70;64.12
30598;BME280;17365;48.878;8.334;2022-07-10T06:40:51;100926.91;;;17.92;62.81
30598;BME280;17365;48.878;8.334;2022-07-10T06:43:17;100931.31;;;17.89;63.70
30598;BME280;17365;48.878;8.334;2022-07-10T06:45:43;100935.25;;;17.57;64.17
30598;BME280;17365;48.878;8.334;2022-07-10T06:48:09;100925.91;;;17.36;65.38
30598;BME280;17365;48.878;8.334;2022-07-10T06:50:35;100930.75;;;17.67;63.21
30598;BME280;17365;48.878;8.334;2022-07-10T06:53:01;100924.56;;;17.72;63.74
30598;BME280;17365;48.878;8.334;2022-07-10T06:55:27;100927.00;;;17.85;63.38
30598;BME280;17365;48.878;8.334;2022-07-10T06:57:53;100931.88;;;17.49;64.33
30598;BME280;17365;48.878;8.334;2022-07-10T07:00:19;100936.44;;;17.33;65.10
30598;BME280;17365;48.878;8.334;2022-07-10T07:02:44;100936.66;;;17.15;65.23
30598;BME280;17365;48.878;8.334;2022-07-10T07:05:11;100935.09;;;17.66;63.97
30598;BME280;17365;48.878;8.334;2022-07-10T07:07:37;100933.88;;;17.93;62.85
30598;BME280;17365;48.878;8.334;2022-07-10T07:10:03;100924.78;;;18.16;61.58
30598;BME280;17365;48.878;8.334;2022-07-10T07:12:29;100930.09;;;18.13;61.08
30598;BME280;17365;48.878;8.334;2022-07-10T07:14:54;100931.28;;;18.44;60.96
30598;BME280;17365;48.878;8.334;2022-07-10T07:17:20;100931.88;;;18.61;60.59
30598;BME280;17365;48.878;8.334;2022-07-10T07:19:59;100930.03;;;17.54;63.58
30598;BME280;17365;48.878;8.334;2022-07-10T07:22:43;100929.13;;;18.71;60.44
30598;BME280;17365;48.878;8.334;2022-07-10T07:25:28;100938.22;;;17.96;62.56
30598;BME280;17365;48.878;8.334;2022-07-10T07:27:53;100937.41;;;17.92;62.07
30598;BME280;17365;48.878;8.334;2022-07-10T07:30:18;100937.75;;;18.25;61.09
30598;BME280;17365;48.878;8.334;2022-07-10T07:32:45;100929.06;;;18.72;58.93
30598;BME280;17365;48.878;8.334;2022-07-10T07:35:12;100928.50;;;19.03;58.64
30598;BME280;17365;48.878;8.334;2022-07-10T07:37:39;100929.88;;;18.76;58.15
30598;BME280;17365;48.878;8.334;2022-07-10T07:40:06;100928.56;;;18.98;58.14
30598;BME280;17365;48.878;8.334;2022-07-10T07:42:32;100929.81;;;18.80;58.72
30598;BME280;17365;48.878;8.334;2022-07-10T07:44:57;100932.50;;;18.76;58.22
30598;BME280;17365;48.878;8.334;2022-07-10T07:47:22;100935.88;;;18.84;57.98
30598;BME280;17365;48.878;8.334;2022-07-10T07:49:48;100933.56;;;18.66;58.13
30598;BME280;17365;48.878;8.334;2022-07-10T07:52:13;100944.59;;;18.86;58.39
30598;BME280;17365;48.878;8.334;2022-07-10T07:54:39;100940.53;;;19.14;57.48
30598;BME280;17365;48.878;8.334;2022-07-10T07:57:05;100928.22;;;19.16;57.28
30598;BME280;17365;48.878;8.334;2022-07-10T07:59:30;100935.25;;;18.17;57.14
30598;BME280;17365;48.878;8.334;2022-07-10T08:01:55;100939.72;;;18.11;57.20
30598;BME280;17365;48.878;8.334;2022-07-10T08:04:21;100937.03;;;18.15;57.00
30598;BME280;17365;48.878;8.334;2022-07-10T08:06:46;100928.44;;;18.58;56.33
30598;BME280;17365;48.878;8.334;2022-07-10T08:09:11;100926.31;;;18.29;56.70
30598;BME280;17365;48.878;8.334;2022-07-10T08:11:37;100932.53;;;18.22;56.36
30598;BME280;17365;48.878;8.334;2022-07-10T08:14:02;100918.81;;;18.55;55.34
30598;BME280;17365;48.878;8.334;2022-07-10T08:16:27;100920.31;;;18.72;54.79
30598;BME280;17365;48.878;8.334;2022-07-10T08:18:52;100908.97;;;19.13;54.23
30598;BME280;17365;48.878;8.334;2022-07-10T08:21:18;100918.75;;;19.08;53.72
30598;BME280;17365;48.878;8.334;2022-07-10T08:23:43;100924.94;;;19.05;54.21
30598;BME280;17365;48.878;8.334;2022-07-10T08:26:08;100935.69;;;18.42;55.95
30598;BME280;17365;48.878;8.334;2022-07-10T08:28:33;100928.03;;;18.79;55.46
30598;BME280;17365;48.878;8.334;2022-07-10T08:30:59;100924.13;;;18.54;54.89
30598;BME280;17365;48.878;8.334;2022-07-10T08:33:24;100926.69;;;19.05;53.77
30598;BME280;17365;48.878;8.334;2022-07-10T08:35:49;100918.06;;;19.40;52.52
30598;BME280;17365;48.878;8.334;2022-07-10T08:38:15;100910.69;;;19.15;53.34
30598;BME280;17365;48.878;8.334;2022-07-10T08:40:41;100912.97;;;19.32;53.19
30598;BME280;17365;48.878;8.334;2022-07-10T08:43:06;100907.41;;;19.46;51.27
30598;BME280;17365;48.878;8.334;2022-07-10T08:45:32;100911.38;;;19.24;51.67
30598;BME280;17365;48.878;8.334;2022-07-10T08:48:02;100918.75;;;18.60;52.84
30598;BME280;17365;48.878;8.334;2022-07-10T08:50:32;100933.00;;;18.45;54.03
30598;BME280;17365;48.878;8.334;2022-07-10T08:55:27;100914.22;;;19.14;52.47
30598;BME280;17365;48.878;8.334;2022-07-10T08:57:53;100914.53;;;18.99;52.09
30598;BME280;17365;48.878;8.334;2022-07-10T09:00:21;100910.88;;;18.60;53.04
30598;BME280;17365;48.878;8.334;2022-07-10T09:02:47;100899.72;;;19.37;50.96
30598;BME280;17365;48.878;8.334;2022-07-10T09:05:12;100905.28;;;20.00;50.14
30598;BME280;17365;48.878;8.334;2022-07-10T09:07:38;100901.66;;;19.29;49.83
30598;BME280;17365;48.878;8.334;2022-07-10T09:10:09;100896.69;;;19.13;50.80
30598;BME280;17365;48.878;8.334;2022-07-10T09:12:49;100902.88;;;19.91;50.10
30598;BME280;17365;48.878;8.334;2022-07-10T09:15:17;100907.38;;;19.06;50.87
30598;BME280;17365;48.878;8.334;2022-07-10T09:17:56;100908.06;;;19.57;49.28
30598;BME280;17365;48.878;8.334;2022-07-10T09:20:33;100903.22;;;19.36;49.43
30598;BME280;17365;48.878;8.334;2022-07-10T09:23:11;100909.75;;;18.75;51.06
30598;BME280;17365;48.878;8.334;2022-07-10T09:25:39;100917.16;;;18.99;50.46
30598;BME280;17365;48.878;8.334;2022-07-10T09:28:05;100900.66;;;19.74;49.74
30598;BME280;17365;48.878;8.334;2022-07-10T09:30:36;100903.06;;;19.43;49.76
30598;BME280;17365;48.878;8.334;2022-07-10T09:33:24;100910.97;;;19.84;47.65
30598;BME280;17365;48.878;8.334;2022-07-10T09:36:07;100911.56;;;19.16;48.06
30598;BME280;17365;48.878;8.334;2022-07-10T09:44:04;100913.34;;;20.30;45.84
30598;BME280;17365;48.878;8.334;2022-07-10T09:46:39;100912.69;;;20.56;45.46
30598;BME280;17365;48.878;8.334;2022-07-10T09:49:09;100904.06;;;21.13;43.76
30598;BME280;17365;48.878;8.334;2022-07-10T09:51:39;100901.94;;;19.57;45.72
30598;BME280;17365;48.878;8.334;2022-07-10T09:54:06;100903.25;;;19.76;45.48
30598;BME280;17365;48.878;8.334;2022-07-10T09:56:38;100899.16;;;20.00;45.01
30598;BME280;17365;48.878;8.334;2022-07-10T09:59:08;100902.47;;;20.08;44.72
30598;BME280;17365;48.878;8.334;2022-07-10T10:01:35;100898.09;;;19.71;43.78
30598;BME280;17365;48.878;8.334;2022-07-10T10:04:02;100898.22;;;20.02;43.44
30598;BME280;17365;48.878;8.334;2022-07-10T10:06:29;100882.34;;;20.72;42.38
30598;BME280;17365;48.878;8.334;2022-07-10T10:09:12;100887.69;;;20.36;43.72
30598;BME280;17365;48.878;8.334;2022-07-10T10:11:43;100892.38;;;19.51;44.26
30598;BME280;17365;48.878;8.334;2022-07-10T10:14:09;100893.88;;;19.23;43.67
30598;BME280;17365;48.878;8.334;2022-07-10T10:16:35;100892.38;;;19.51;44.28
30598;BME280;17365;48.878;8.334;2022-07-10T10:19:02;100886.50;;;19.78;44.08
30598;BME280;17365;48.878;8.334;2022-07-10T10:21:47;100870.69;;;19.78;43.99
30598;BME280;17365;48.878;8.334;2022-07-10T10:24:13;100878.28;;;19.55;42.77
30598;BME280;17365;48.878;8.334;2022-07-10T10:26:39;100879.03;;;20.31;42.98
30598;BME280;17365;48.878;8.334;2022-07-10T10:29:06;100875.16;;;20.79;41.79
30598;BME280;17365;48.878;8.334;2022-07-10T10:31:34;100870.78;;;20.11;42.27
30598;BME280;17365;48.878;8.334;2022-07-10T10:33:59;100885.13;;;20.33;41.60
30598;BME280;17365;48.878;8.334;2022-07-10T10:39:08;100877.53;;;19.47;41.89
30598;BME280;17365;48.878;8.334;2022-07-10T10:41:48;100871.78;;;20.07;40.62
30598;BME280;17365;48.878;8.334;2022-07-10T10:49:16;100873.09;;;20.23;41.38
30598;BME280;17365;48.878;8.334;2022-07-10T10:51:57;100874.44;;;20.05;40.29
30598;BME280;17365;48.878;8.334;2022-07-10T10:55:08;100861.97;;;20.12;40.51
30598;BME280;17365;48.878;8.334;2022-07-10T11:00:04;100859.69;;;20.98;39.46
30598;BME280;17365;48.878;8.334;2022-07-10T11:02:37;100874.19;;;20.50;39.00
30598;BME280;17365;48.878;8.334;2022-07-10T11:07:57;100868.38;;;20.02;38.74
30598;BME280;17365;48.878;8.334;2022-07-10T11:10:31;100873.91;;;20.25;39.23
30598;BME280;17365;48.878;8.334;2022-07-10T11:13:00;100861.25;;;20.72;38.44
30598;BME280;17365;48.878;8.334;2022-07-10T11:15:27;100865.97;;;20.61;37.41
30598;BME280;17365;48.878;8.334;2022-07-10T11:17:58;100871.81;;;20.40;36.97
30598;BME280;17365;48.878;8.334;2022-07-10T11:20:24;100856.44;;;20.23;37.72
30598;BME280;17365;48.878;8.334;2022-07-10T11:23:06;100854.41;;;20.32;37.86
30598;BME280;17365;48.878;8.334;2022-07-10T11:25:42;100863.28;;;20.64;37.46
30598;BME280;17365;48.878;8.334;2022-07-10T11:28:21;100848.69;;;20.82;37.10
30598;BME280;17365;48.878;8.334;2022-07-10T11:33:12;100844.47;;;21.06;36.90
30598;BME280;17365;48.878;8.334;2022-07-10T11:35:39;100846.53;;;20.65;35.88
30598;BME280;17365;48.878;8.334;2022-07-10T11:38:07;100848.50;;;20.57;36.07
30598;BME280;17365;48.878;8.334;2022-07-10T11:40:36;100844.00;;;20.91;36.74
30598;BME280;17365;48.878;8.334;2022-07-10T11:43:02;100845.72;;;21.53;36.30
30598;BME280;17365;48.878;8.334;2022-07-10T11:45:32;100839.75;;;21.46;35.80
30598;BME280;17365;48.878;8.334;2022-07-10T11:47:59;100833.78;;;21.68;35.98
30598;BME280;17365;48.878;8.334;2022-07-10T11:50:25;100855.25;;;21.84;35.57
30598;BME280;17365;48.878;8.334;2022-07-10T11:52:52;100849.63;;;21.10;36.18
30598;BME280;17365;48.878;8.334;2022-07-10T11:55:20;100840.81;;;20.80;36.87
30598;BME280;17365;48.878;8.334;2022-07-10T11:57:46;100843.59;;;21.63;36.26
30598;BME280;17365;48.878;8.334;2022-07-10T12:00:23;100828.09;;;22.06;35.67
30598;BME280;17365;48.878;8.334;2022-07-10T12:02:50;100840.91;;;21.66;35.13
30598;BME280;17365;48.878;8.334;2022-07-10T12:05:36;100846.22;;;21.64;34.96
30598;BME280;17365;48.878;8.334;2022-07-10T12:08:02;100851.75;;;21.57;35.13
30598;BME280;17365;48.878;8.334;2022-07-10T12:10:29;100834.25;;;21.80;34.81
30598;BME280;17365;48.878;8.334;2022-07-10T12:13:05;100838.78;;;21.49;35.81
30598;BME280;17365;48.878;8.334;2022-07-10T12:15:35;100845.59;;;21.83;35.67
30598;BME280;17365;48.878;8.334;2022-07-10T12:18:03;100834.25;;;22.07;35.06
30598;BME280;17365;48.878;8.334;2022-07-10T12:20:29;100837.50;;;22.15;34.97
30598;BME280;17365;48.878;8.334;2022-07-10T12:22:54;100828.59;;;22.18;34.96
30598;BME280;17365;48.878;8.334;2022-07-10T12:25:20;100831.88;;;21.71;35.34
30598;BME280;17365;48.878;8.334;2022-07-10T12:27:46;100820.06;;;21.83;35.57
30598;BME280;17365;48.878;8.334;2022-07-10T12:30:11;100823.81;;;22.02;34.94
30598;BME280;17365;48.878;8.334;2022-07-10T12:32:36;100823.50;;;21.85;34.92
30598;BME280;17365;48.878;8.334;2022-07-10T12:35:02;100820.09;;;22.10;34.93
30598;BME280;17365;48.878;8.334;2022-07-10T12:37:27;100811.31;;;22.09;34.67
30598;BME280;17365;48.878;8.334;2022-07-10T12:39:53;100824.75;;;21.75;35.80
30598;BME280;17365;48.878;8.334;2022-07-10T12:42:26;100813.09;;;22.07;35.09
30598;BME280;17365;48.878;8.334;2022-07-10T12:44:51;100817.81;;;21.71;35.75
30598;BME280;17365;48.878;8.334;2022-07-10T12:47:18;100819.88;;;21.89;35.26
30598;BME280;17365;48.878;8.334;2022-07-10T12:49:56;100817.47;;;21.82;35.58
30598;BME280;17365;48.878;8.334;2022-07-10T12:52:34;100823.16;;;21.96;36.04
30598;BME280;17365;48.878;8.334;2022-07-10T12:57:56;100827.91;;;21.86;35.31
30598;BME280;17365;48.878;8.334;2022-07-10T13:00:23;100823.78;;;21.49;35.66
30598;BME280;17365;48.878;8.334;2022-07-10T13:02:50;100820.41;;;22.25;34.93
30598;BME280;17365;48.878;8.334;2022-07-10T13:05:28;100816.19;;;21.93;35.38
30598;BME280;17365;48.878;8.334;2022-07-10T13:08:10;100807.72;;;21.84;35.40
30598;BME280;17365;48.878;8.334;2022-07-10T13:10:39;100816.31;;;22.17;35.73
30598;BME280;17365;48.878;8.334;2022-07-10T13:13:04;100819.75;;;22.19;35.57
30598;BME280;17365;48.878;8.334;2022-07-10T13:15:30;100813.66;;;22.17;35.36
30598;BME280;17365;48.878;8.334;2022-07-10T13:17:56;100815.66;;;22.10;35.37